Time;durP1;ratioP1;P1;durP2;ratioP2;P2;SDS_P1;SDS_P2;PMS_P1;PMS_P2;Temp;Humidity;BMP_temperature;BMP_pressure;BME280_temperature;BME280_humidity;BME280_pressure;Samples;Min_cycle;Max_cycle;Signal;HPM_P1;HPM_P2
2022/06/06 00:00:00;;;;;;;11.85;8.30;;;16.00;99.90;;;;;;5008663;28;20041;-67
2022/06/06 00:02:29;;;;;;;9.95;7.82;;;16.00;99.90;;;;;;5010199;28;20404;-67
2022/06/06 00:04:54;;;;;;;9.48;7.53;;;15.90;99.90;;;;;;4994360;28;20084;-66
2022/06/06 00:07:20;;;;;;;8.82;7.43;;;15.90;99.90;;;;;;4991643;28;20077;-66
2022/06/06 00:09:47;;;;;;;9.85;7.68;;;15.90;99.90;;;;;;5008825;28;20034;-66
2022/06/06 00:12:13;;;;;;;9.77;8.10;;;15.90;99.90;;;;;;4989614;28;20492;-65
2022/06/06 00:14:39;;;;;;;8.63;7.20;;;15.80;99.90;;;;;;5009095;28;20045;-66
2022/06/06 00:17:04;;;;;;;8.95;6.78;;;15.80;99.90;;;;;;5006825;28;20042;-65
2022/06/06 00:19:30;;;;;;;7.85;6.57;;;15.80;99.90;;;;;;5008509;28;20161;-65
2022/06/06 00:21:56;;;;;;;7.65;6.43;;;15.80;99.90;;;;;;4989131;28;20050;-66
2022/06/06 00:24:21;;;;;;;7.40;6.35;;;15.80;99.90;;;;;;5009338;28;20590;-66
2022/06/06 00:26:47;;;;;;;8.52;6.60;;;15.80;99.90;;;;;;5009482;28;20266;-66
2022/06/06 00:29:15;;;;;;;7.03;6.03;;;15.80;99.90;;;;;;4990945;28;20127;-66
2022/06/06 00:37:15;;;;;;;8.40;5.75;;;15.70;99.90;;;;;;5007742;28;20050;-65
2022/06/06 00:39:45;;;;;;;6.90;5.65;;;15.70;99.90;;;;;;4986992;28;20069;-65
2022/06/06 00:42:15;;;;;;;9.82;5.90;;;15.70;99.90;;;;;;4990918;28;20443;-65
2022/06/06 00:44:41;;;;;;;6.93;5.60;;;15.70;99.90;;;;;;5008294;28;20385;-65
2022/06/06 00:47:20;;;;;;;8.13;5.93;;;15.60;99.90;;;;;;4992241;28;20446;-65
2022/06/06 00:49:50;;;;;;;7.80;6.05;;;15.60;99.90;;;;;;4987857;28;20444;-65
2022/06/06 00:52:24;;;;;;;7.22;5.85;;;15.60;99.90;;;;;;5006891;28;20041;-64
2022/06/06 00:54:54;;;;;;;8.30;5.68;;;15.60;99.90;;;;;;4971338;28;20042;-65
2022/06/06 00:57:24;;;;;;;8.68;6.20;;;15.60;99.90;;;;;;5007792;28;20038;-65
2022/06/06 00:59:51;;;;;;;8.27;6.78;;;15.60;99.90;;;;;;4982533;28;20061;-66
2022/06/06 01:02:17;;;;;;;8.50;6.93;;;15.60;99.90;;;;;;5008770;28;20038;-66
2022/06/06 01:04:43;;;;;;;8.60;6.97;;;15.60;99.90;;;;;;5012768;28;20140;-65
2022/06/06 01:07:10;;;;;;;9.23;7.15;;;15.60;99.90;;;;;;5014211;28;20547;-65
2022/06/06 01:09:38;;;;;;;8.93;6.55;;;15.60;99.90;;;;;;4992308;28;20043;-66
2022/06/06 01:12:09;;;;;;;9.60;7.85;;;15.50;99.90;;;;;;5012968;28;20744;-66
2022/06/06 01:14:39;;;;;;;11.20;9.30;;;15.60;99.90;;;;;;5015738;28;20069;-66
2022/06/06 01:17:19;;;;;;;11.60;9.07;;;15.60;99.90;;;;;;5013986;28;20100;-66
2022/06/06 01:20:24;;;;;;;14.75;11.80;;;15.60;99.90;;;;;;4990782;28;20037;-66
2022/06/06 01:23:13;;;;;;;17.58;13.20;;;15.60;99.90;;;;;;5008891;28;20404;-66
2022/06/06 01:25:51;;;;;;;15.30;11.40;;;15.60;99.90;;;;;;4994414;28;20103;-66
2022/06/06 01:28:25;;;;;;;17.10;13.05;;;15.60;99.90;;;;;;4996446;28;20488;-66
2022/06/06 01:30:56;;;;;;;21.33;16.38;;;15.60;99.90;;;;;;4995846;28;20042;-66
2022/06/06 01:33:22;;;;;;;22.95;16.88;;;15.60;99.90;;;;;;4983342;28;20092;-66
2022/06/06 01:35:50;;;;;;;25.27;17.92;;;15.60;99.90;;;;;;5011760;28;20439;-66
2022/06/06 01:38:19;;;;;;;27.02;19.95;;;15.60;99.90;;;;;;4996151;28;20076;-66
2022/06/06 01:41:38;;;;;;;28.70;19.75;;;15.60;99.90;;;;;;4996328;28;20030;-66
2022/06/06 01:44:15;;;;;;;24.30;18.55;;;15.60;99.90;;;;;;4977041;28;20499;-66
2022/06/06 01:46:42;;;;;;;31.92;21.67;;;15.50;99.90;;;;;;4995853;28;20053;-66
2022/06/06 01:49:11;;;;;;;31.73;21.08;;;15.50;99.90;;;;;;4994953;28;20042;-66
2022/06/06 01:51:37;;;;;;;34.60;22.33;;;15.40;99.90;;;;;;4994684;28;20092;-66
2022/06/06 01:54:03;;;;;;;31.80;21.83;;;15.40;99.90;;;;;;4993111;28;20046;-66
2022/06/06 01:56:33;;;;;;;37.53;23.88;;;15.40;99.90;;;;;;4996095;28;20034;-66
2022/06/06 01:59:00;;;;;;;35.60;23.27;;;15.40;99.90;;;;;;5011816;28;20396;-66
2022/06/06 02:01:26;;;;;;;38.22;24.67;;;15.30;99.90;;;;;;4994129;28;20045;-66
2022/06/06 02:03:52;;;;;;;37.90;23.15;;;15.30;99.90;;;;;;4993717;28;20046;-66
2022/06/06 02:06:18;;;;;;;37.08;23.48;;;15.20;99.90;;;;;;5012559;28;20037;-66
2022/06/06 02:08:44;;;;;;;34.88;22.95;;;15.20;99.90;;;;;;4994065;28;20476;-66
2022/06/06 02:11:11;;;;;;;33.90;22.73;;;15.20;99.90;;;;;;5011947;28;20034;-66
2022/06/06 02:13:37;;;;;;;32.03;19.77;;;15.20;99.90;;;;;;5011651;28;20045;-66
2022/06/06 02:16:03;;;;;;;27.55;18.58;;;15.20;99.90;;;;;;5010294;28;20057;-66
2022/06/06 02:18:29;;;;;;;26.20;17.67;;;15.10;99.90;;;;;;4986204;28;20034;-66
2022/06/06 02:20:55;;;;;;;25.85;16.80;;;15.20;99.90;;;;;;4994646;28;20508;-66
2022/06/06 02:23:21;;;;;;;23.80;16.27;;;15.10;99.90;;;;;;4994552;28;20053;-66
2022/06/06 02:25:47;;;;;;;23.52;16.02;;;15.10;99.90;;;;;;5011050;28;20074;-66
2022/06/06 02:28:15;;;;;;;25.15;16.67;;;15.10;99.90;;;;;;5008590;28;20724;-66
2022/06/06 02:30:42;;;;;;;26.90;16.58;;;15.00;99.90;;;;;;5011469;28;20045;-66
2022/06/06 02:33:08;;;;;;;31.25;19.02;;;15.00;99.90;;;;;;4994041;28;20554;-67
2022/06/06 02:35:40;;;;;;;34.25;19.80;;;15.00;99.90;;;;;;5011623;28;20038;-66
2022/06/06 02:38:06;;;;;;;35.67;20.85;;;14.90;99.90;;;;;;4993371;28;20484;-66
2022/06/06 02:40:32;;;;;;;37.45;20.92;;;14.90;99.90;;;;;;5010089;28;20034;-66
2022/06/06 02:42:58;;;;;;;40.55;21.10;;;14.90;99.90;;;;;;4985362;28;20049;-66
2022/06/06 02:45:24;;;;;;;40.22;23.55;;;14.80;99.90;;;;;;4987225;28;20034;-66
2022/06/06 02:47:53;;;;;;;39.97;22.63;;;14.80;99.90;;;;;;4992882;28;20492;-66
2022/06/06 02:50:22;;;;;;;40.03;23.20;;;14.80;99.90;;;;;;4985815;28;20038;-66
2022/06/06 02:52:48;;;;;;;47.80;25.02;;;14.80;99.90;;;;;;5011076;28;20439;-66
2022/06/06 02:55:14;;;;;;;44.40;24.27;;;14.80;99.90;;;;;;4975968;28;20046;-66
2022/06/06 02:57:49;;;;;;;47.60;24.58;;;14.70;99.90;;;;;;4990441;28;20122;-66
2022/06/06 03:00:19;;;;;;;46.95;23.15;;;14.70;99.90;;;;;;4992708;28;20040;-66
2022/06/06 03:02:45;;;;;;;43.35;22.30;;;14.70;99.90;;;;;;5008576;28;20069;-66
2022/06/06 03:05:11;;;;;;;38.47;19.67;;;14.70;99.90;;;;;;4992285;28;20065;-66
2022/06/06 03:07:59;;;;;;;33.35;16.77;;;14.70;99.90;;;;;;4992671;28;20049;-66
2022/06/06 03:10:41;;;;;;;28.42;15.18;;;14.70;99.90;;;;;;5006287;28;20444;-66
2022/06/06 03:13:29;;;;;;;24.42;12.93;;;14.60;99.90;;;;;;4993714;28;20041;-66
2022/06/06 03:22:43;;;;;;;26.33;12.57;;;14.50;99.90;;;;;;4988882;28;20073;-66
2022/06/06 03:25:18;;;;;;;21.73;12.60;;;14.50;99.90;;;;;;4991539;28;20465;-66
2022/06/06 03:28:04;;;;;;;22.92;12.10;;;14.50;99.90;;;;;;5014055;28;20503;-66
2022/06/06 03:30:55;;;;;;;23.35;11.88;;;14.40;99.90;;;;;;5009915;28;20403;-66
2022/06/06 03:33:32;;;;;;;24.58;12.18;;;14.40;99.90;;;;;;4985367;28;20456;-66
2022/06/06 03:36:03;;;;;;;22.92;11.65;;;14.40;99.90;;;;;;4991261;28;20493;-66
2022/06/06 03:38:58;;;;;;;20.52;11.10;;;14.40;99.90;;;;;;4992462;28;20068;-66
2022/06/06 03:41:41;;;;;;;21.08;10.75;;;14.40;99.90;;;;;;5009905;28;20030;-66
2022/06/06 03:44:31;;;;;;;17.17;10.13;;;14.40;99.90;;;;;;5009119;28;20033;-66
2022/06/06 03:47:15;;;;;;;18.48;10.10;;;14.30;99.90;;;;;;4990257;28;20427;-66
2022/06/06 03:50:17;;;;;;;17.15;9.57;;;14.30;99.90;;;;;;4992079;28;20057;-66
2022/06/06 03:52:55;;;;;;;19.48;10.40;;;14.30;99.90;;;;;;5008951;28;20076;-66
2022/06/06 03:55:32;;;;;;;19.40;10.48;;;14.30;99.90;;;;;;4969224;28;20045;-66
2022/06/06 03:58:03;;;;;;;19.45;11.63;;;14.20;99.90;;;;;;4991082;28;20096;-66
2022/06/06 04:00:29;;;;;;;21.40;11.63;;;14.30;99.90;;;;;;5010416;28;20044;-66
2022/06/06 04:02:56;;;;;;;21.88;11.80;;;14.30;99.90;;;;;;5009100;28;20455;-66
2022/06/06 04:05:23;;;;;;;22.85;12.93;;;14.30;99.90;;;;;;4992281;28;20141;-66
2022/06/06 04:07:51;;;;;;;24.20;13.00;;;14.30;99.90;;;;;;5009304;28;20128;-66
2022/06/06 04:10:17;;;;;;;23.42;12.68;;;14.30;99.90;;;;;;5005780;28;20034;-66
2022/06/06 04:13:07;;;;;;;24.63;13.93;;;14.30;99.90;;;;;;5010447;28;20036;-66
2022/06/06 04:15:53;;;;;;;27.52;13.68;;;14.30;99.90;;;;;;5007660;28;20042;-66
2022/06/06 04:18:37;;;;;;;24.38;13.55;;;14.30;99.90;;;;;;5007776;28;20163;-66
2022/06/06 04:21:17;;;;;;;24.05;13.70;;;14.30;99.90;;;;;;4986890;28;20109;-66
2022/06/06 04:23:58;;;;;;;24.40;13.63;;;14.30;99.90;;;;;;5007697;28;20045;-66
2022/06/06 04:26:47;;;;;;;28.35;13.77;;;14.30;99.90;;;;;;4999733;28;20038;-66
2022/06/06 04:29:37;;;;;;;23.55;13.23;;;14.30;99.90;;;;;;5008361;28;21817;-66
2022/06/06 04:32:29;;;;;;;26.30;14.93;;;14.30;99.90;;;;;;5008581;28;20034;-66
2022/06/06 04:35:07;;;;;;;25.70;14.07;;;14.30;99.90;;;;;;4989131;28;20488;-66
2022/06/06 04:37:45;;;;;;;26.23;15.30;;;14.20;99.90;;;;;;5004670;28;20049;-66
2022/06/06 04:40:23;;;;;;;28.52;15.32;;;14.20;99.90;;;;;;4992821;28;20135;-66
2022/06/06 04:43:01;;;;;;;26.52;14.88;;;14.20;99.90;;;;;;4989576;28;20168;-66
2022/06/06 04:45:38;;;;;;;30.17;14.52;;;14.20;99.90;;;;;;4990461;28;20401;-66
2022/06/06 04:48:05;;;;;;;28.73;14.43;;;14.20;99.90;;;;;;4993766;28;20034;-66
2022/06/06 04:50:32;;;;;;;29.67;14.80;;;14.20;99.90;;;;;;5012738;28;20049;-66
2022/06/06 04:53:10;;;;;;;27.63;14.88;;;14.20;99.90;;;;;;5009993;28;20101;-66
2022/06/06 04:55:40;;;;;;;24.10;14.38;;;14.20;99.90;;;;;;5010347;28;20144;-66
2022/06/06 04:58:07;;;;;;;24.15;14.07;;;14.20;99.90;;;;;;5014552;28;20038;-66
2022/06/06 05:00:35;;;;;;;24.15;13.52;;;14.20;99.90;;;;;;5001159;28;20393;-66
2022/06/06 05:03:01;;;;;;;24.48;13.55;;;14.20;99.90;;;;;;4992950;28;20049;-66
2022/06/06 05:05:44;;;;;;;25.00;13.80;;;14.20;99.90;;;;;;5007400;28;20145;-66
2022/06/06 05:08:41;;;;;;;25.75;13.52;;;14.20;99.90;;;;;;4995305;28;20049;-66
2022/06/06 05:11:25;;;;;;;27.77;13.68;;;14.20;99.90;;;;;;4987762;28;20050;-66
2022/06/06 05:14:03;;;;;;;23.88;13.43;;;14.20;99.90;;;;;;4992190;28;20097;-66
2022/06/06 05:16:59;;;;;;;26.85;14.07;;;14.20;99.90;;;;;;5005595;28;20042;-66
2022/06/06 05:19:46;;;;;;;25.50;13.93;;;14.20;99.90;;;;;;5005255;28;20088;-66
2022/06/06 05:22:24;;;;;;;21.27;13.00;;;14.20;99.90;;;;;;5008974;28;20042;-66
2022/06/06 05:25:17;;;;;;;26.65;14.32;;;14.30;99.90;;;;;;4995582;28;20136;-66
2022/06/06 05:28:00;;;;;;;21.83;12.75;;;14.30;99.90;;;;;;4991871;28;20042;-66
2022/06/06 05:30:40;;;;;;;25.65;13.50;;;14.30;99.90;;;;;;4991730;28;20192;-66
2022/06/06 05:33:19;;;;;;;26.85;13.93;;;14.30;99.90;;;;;;5009052;28;20528;-66
2022/06/06 05:36:29;;;;;;;29.05;13.88;;;14.40;99.90;;;;;;5012438;28;20101;-66
2022/06/06 05:39:22;;;;;;;26.05;13.25;;;14.40;99.90;;;;;;4955468;28;20039;-66
2022/06/06 05:42:12;;;;;;;28.10;13.85;;;14.40;99.90;;;;;;4991568;28;20057;-65
2022/06/06 05:44:56;;;;;;;23.80;14.23;;;14.40;99.90;;;;;;4995138;28;20046;-66
2022/06/06 05:47:30;;;;;;;24.23;13.93;;;14.40;99.90;;;;;;5011698;28;20049;-66
2022/06/06 05:50:21;;;;;;;27.60;15.32;;;14.40;99.90;;;;;;5011808;28;20038;-66
2022/06/06 05:53:32;;;;;;;25.80;14.35;;;14.10;99.90;;;;;;4988307;28;20099;-66
2022/06/06 05:56:12;;;;;;;26.63;13.65;;;14.40;99.90;;;;;;5009306;28;20042;-65
2022/06/06 05:58:56;;;;;;;24.45;13.10;;;14.50;99.90;;;;;;4994837;28;20049;-65
2022/06/06 06:01:30;;;;;;;26.27;13.52;;;14.60;99.90;;;;;;4991787;28;20042;-66
2022/06/06 06:04:08;;;;;;;25.02;13.10;;;14.60;99.90;;;;;;5021470;23;20080;-63
2022/06/06 06:07:03;;;;;;;23.80;12.05;;;14.60;99.90;;;;;;5009211;28;20049;-63
2022/06/06 06:09:55;;;;;;;21.88;11.98;;;14.70;99.90;;;;;;4991481;28;20049;-62
2022/06/06 06:12:35;;;;;;;23.20;11.80;;;14.70;99.90;;;;;;5012040;28;20064;-63
2022/06/06 06:15:24;;;;;;;24.52;11.50;;;14.80;99.90;;;;;;5012387;28;20052;-62
2022/06/06 06:17:54;;;;;;;22.58;12.45;;;14.80;99.90;;;;;;5024519;28;20392;-64
2022/06/06 06:20:23;;;;;;;23.58;13.13;;;14.90;99.90;;;;;;5006683;28;20103;-62
2022/06/06 06:22:53;;;;;;;23.63;12.98;;;14.90;99.90;;;;;;5021057;28;20041;-63
2022/06/06 06:25:20;;;;;;;24.00;13.55;;;15.00;99.90;;;;;;5015482;28;20546;-63
2022/06/06 06:27:47;;;;;;;25.90;12.77;;;15.00;99.90;;;;;;5025299;28;20029;-62
2022/06/06 06:30:14;;;;;;;22.90;12.65;;;15.00;99.90;;;;;;5023191;28;20029;-63
2022/06/06 06:32:59;;;;;;;23.90;12.30;;;15.10;99.90;;;;;;5007789;28;20092;-62
2022/06/06 06:35:33;;;;;;;25.27;13.13;;;15.20;99.90;;;;;;5024646;28;20499;-64
2022/06/06 06:38:14;;;;;;;23.77;12.98;;;15.20;99.90;;;;;;5031381;28;20113;-63
2022/06/06 06:40:56;;;;;;;22.65;12.30;;;15.30;99.90;;;;;;5026348;28;20533;-66
2022/06/06 06:43:43;;;;;;;54.58;15.88;;;15.40;99.90;;;;;;5027389;28;20041;-62
2022/06/06 06:46:26;;;;;;;19.83;10.85;;;15.40;99.90;;;;;;5013245;28;20041;-64
2022/06/06 06:49:05;;;;;;;21.13;10.98;;;15.40;99.90;;;;;;5022617;28;20037;-62
2022/06/06 06:52:11;;;;;;;20.35;10.73;;;15.40;99.90;;;;;;5011364;28;20045;-62
2022/06/06 06:54:46;;;;;;;26.52;12.82;;;15.40;99.90;;;;;;5027473;28;20156;-63
2022/06/06 06:57:33;;;;;;;23.75;11.90;;;15.30;99.90;;;;;;5026150;28;20045;-63
2022/06/06 07:00:13;;;;;;;24.40;12.45;;;15.40;99.90;;;;;;5020789;28;20037;-63
2022/06/06 07:09:13;;;;;;;21.20;11.60;;;15.50;99.90;;;;;;4980952;28;20525;-65
2022/06/06 07:12:06;;;;;;;24.85;12.88;;;15.50;99.90;;;;;;4979931;28;20148;-65
2022/06/06 07:14:51;;;;;;;23.35;13.82;;;15.50;99.90;;;;;;4999188;28;20517;-63
2022/06/06 07:17:20;;;;;;;25.67;13.38;;;15.50;99.90;;;;;;5006649;28;20084;-63
2022/06/06 07:19:53;;;;;;;28.02;14.75;;;15.40;99.90;;;;;;5019373;28;20037;-63
2022/06/06 07:22:20;;;;;;;24.80;14.40;;;15.50;99.90;;;;;;5021181;28;20115;-64
2022/06/06 07:24:54;;;;;;;26.13;14.60;;;15.40;99.90;;;;;;5016098;28;20056;-63
2022/06/06 07:27:20;;;;;;;24.65;13.70;;;15.40;99.90;;;;;;5021024;28;20029;-64
2022/06/06 07:29:45;;;;;;;25.27;13.98;;;15.30;99.90;;;;;;5006661;28;20041;-62
2022/06/06 07:32:17;;;;;;;21.08;12.80;;;15.30;99.90;;;;;;5012081;28;20038;-62
2022/06/06 07:35:03;;;;;;;;;;;15.20;99.90;;;;;;5006312;28;20488;-62
2022/06/06 07:37:50;;;;;;;21.25;11.32;;;15.20;99.90;;;;;;5019652;28;19976;-62
2022/06/06 07:40:49;;;;;;;17.85;10.85;;;15.30;99.90;;;;;;5005185;28;20049;-63
2022/06/06 07:43:40;;;;;;;20.55;10.57;;;15.30;99.90;;;;;;5007310;28;20122;-64
2022/06/06 07:46:16;;;;;;;20.00;11.00;;;15.40;99.90;;;;;;4994353;28;20038;-62
2022/06/06 07:48:50;;;;;;;20.90;11.77;;;15.50;99.90;;;;;;5021136;28;20112;-63
2022/06/06 07:51:27;;;;;;;23.15;11.32;;;15.50;99.90;;;;;;5001651;28;20045;-62
2022/06/06 07:54:05;;;;;;;15.23;9.68;;;15.60;99.90;;;;;;5021830;28;20410;-66
2022/06/06 07:56:33;;;;;;;13.75;9.27;;;15.60;99.90;;;;;;5021857;28;20411;-64
2022/06/06 07:59:22;;;;;;;13.93;8.30;;;15.70;99.90;;;;;;5006553;28;20038;-63
2022/06/06 08:02:17;;;;;;;15.75;8.50;;;15.80;99.90;;;;;;5006126;28;20060;-62
2022/06/06 08:04:46;;;;;;;13.90;8.45;;;16.00;99.90;;;;;;4987308;28;20048;-65
2022/06/06 08:07:32;;;;;;;15.45;8.65;;;16.10;99.90;;;;;;4985837;28;20036;-62
2022/06/06 08:10:19;;;;;;;10.50;7.10;;;16.10;99.90;;;;;;5013907;28;20041;-62
2022/06/06 08:13:13;;;;;;;13.27;7.10;;;16.10;99.90;;;;;;5006251;28;20249;-63
2022/06/06 08:16:04;;;;;;;9.35;6.25;;;16.20;99.90;;;;;;4992110;28;20381;-65
2022/06/06 08:18:38;;;;;;;10.40;6.35;;;16.30;99.90;;;;;;4994508;28;20073;-63
2022/06/06 08:21:34;;;;;;;11.10;5.72;;;16.30;99.90;;;;;;5025159;28;20065;-63
2022/06/06 08:24:02;;;;;;;10.40;5.30;;;16.50;99.90;;;;;;5015213;28;20399;-64
2022/06/06 08:26:30;;;;;;;9.88;4.30;;;16.70;99.90;;;;;;5027162;28;20070;-64
2022/06/06 08:28:55;;;;;;;7.75;3.20;;;16.80;99.90;;;;;;5029137;28;20046;-63
2022/06/06 08:31:21;;;;;;;6.57;2.70;;;16.90;99.90;;;;;;5012321;28;20048;-63
2022/06/06 08:33:47;;;;;;;7.03;2.65;;;17.00;99.90;;;;;;5029304;28;20049;-63
2022/06/06 08:36:28;;;;;;;7.55;2.92;;;17.10;99.90;;;;;;5025914;28;20195;-63
2022/06/06 08:39:25;;;;;;;8.02;2.72;;;17.20;99.90;;;;;;5029508;28;20164;-65
2022/06/06 08:42:12;;;;;;;4.93;2.70;;;17.20;99.90;;;;;;4991617;28;20030;-63
2022/06/06 08:45:04;;;;;;;7.15;2.58;;;17.00;99.90;;;;;;5010431;28;20049;-63
2022/06/06 08:47:32;;;;;;;8.97;2.40;;;17.10;99.90;;;;;;4998186;28;20053;-63
2022/06/06 08:53:22;;;;;;;6.28;3.00;;;17.50;99.90;;;;;;5007790;28;20503;-63
2022/06/06 08:56:11;;;;;;;6.95;2.70;;;17.60;99.90;;;;;;5009794;28;20495;-63
2022/06/06 08:58:55;;;;;;;5.45;2.42;;;17.70;99.90;;;;;;5007688;28;20124;-63
2022/06/06 09:01:24;;;;;;;4.50;2.30;;;17.50;99.90;;;;;;5024905;28;20148;-63
2022/06/06 09:04:21;;;;;;;3.95;2.40;;;17.40;99.90;;;;;;5029162;28;20080;-63
2022/06/06 09:07:20;;;;;;;6.07;2.55;;;17.50;99.90;;;;;;5010641;28;20087;-63
2022/06/06 09:10:10;;;;;;;7.55;2.65;;;17.60;99.90;;;;;;5008861;28;20475;-63
2022/06/06 09:12:51;;;;;;;5.60;2.60;;;17.60;99.90;;;;;;5012406;28;20045;-63
2022/06/06 09:15:37;;;;;;;5.93;2.75;;;17.40;99.90;;;;;;5010178;28;20045;-63
2022/06/06 09:18:21;;;;;;;4.60;2.85;;;17.30;99.90;;;;;;5011538;28;20051;-64
2022/06/06 09:21:04;;;;;;;5.43;3.13;;;17.10;99.90;;;;;;5032410;28;20048;-64
2022/06/06 09:23:39;;;;;;;10.75;3.28;;;17.00;99.90;;;;;;5005775;28;20041;-64
2022/06/06 09:26:30;;;;;;;9.20;3.00;;;17.30;99.90;;;;;;5014759;28;20048;-64
2022/06/06 09:29:52;;;;;;;5.25;2.50;;;17.50;99.90;;;;;;5013308;28;20033;-64
2022/06/06 09:32:42;;;;;;;9.50;2.80;;;17.50;99.90;;;;;;4935329;29;20045;-64
2022/06/06 09:35:20;;;;;;;6.43;2.42;;;17.50;99.90;;;;;;4927677;29;20138;-63
2022/06/06 09:38:18;;;;;;;6.53;2.40;;;17.40;99.90;;;;;;4985132;28;20595;-64
2022/06/06 09:40:56;;;;;;;6.70;2.47;;;17.80;99.90;;;;;;5027820;28;20083;-64
2022/06/06 09:43:54;;;;;;;5.60;2.20;;;18.10;99.90;;;;;;5006280;28;20487;-64
2022/06/06 09:46:40;;;;;;;4.75;2.20;;;18.40;99.90;;;;;;5024665;28;20092;-65
2022/06/06 09:49:08;;;;;;;5.07;2.10;;;18.50;99.90;;;;;;5029937;28;20045;-64
2022/06/06 09:52:08;;;;;;;4.53;1.95;;;18.30;99.90;;;;;;5013971;28;20499;-63
2022/06/06 10:00:28;;;;;;;5.55;2.50;;;17.40;99.90;;;;;;5012701;28;20042;-63
2022/06/06 10:03:00;;;;;;;5.18;2.50;;;17.10;99.90;;;;;;5034626;28;20041;-63
2022/06/06 10:06:01;;;;;;;7.75;3.13;;;17.00;99.90;;;;;;5014008;28;20117;-63
2022/06/06 10:08:38;;;;;;;6.70;2.55;;;17.30;99.90;;;;;;4994269;28;20380;-63
2022/06/06 10:11:26;;;;;;;6.18;2.50;;;17.60;99.90;;;;;;5031908;28;20088;-65
2022/06/06 10:14:04;;;;;;;6.38;2.30;;;18.00;99.90;;;;;;5012433;28;20078;-64
2022/06/06 10:16:36;;;;;;;4.55;2.50;;;18.30;99.90;;;;;;5029193;28;20120;-65
2022/06/06 10:19:18;;;;;;;7.30;2.50;;;18.40;99.90;;;;;;5013801;28;20467;-63
2022/06/06 10:21:59;;;;;;;8.38;2.50;;;18.30;99.90;;;;;;5013937;28;20033;-63
2022/06/06 10:24:47;;;;;;;7.18;2.70;;;18.00;99.90;;;;;;5013488;28;20136;-63
2022/06/06 10:27:15;;;;;;;5.10;2.47;;;17.70;99.90;;;;;;5030886;28;20440;-64
2022/06/06 10:30:11;;;;;;;5.00;2.40;;;17.40;99.90;;;;;;4996532;28;20163;-65
2022/06/06 10:32:40;;;;;;;6.38;2.95;;;17.10;99.90;;;;;;5038021;28;20119;-63
2022/06/06 10:35:34;;;;;;;4.57;2.63;;;16.90;99.90;;;;;;5031405;28;20048;-63
2022/06/06 10:38:23;;;;;;;7.93;3.33;;;16.70;99.90;;;;;;5012843;28;20038;-64
2022/06/06 10:41:08;;;;;;;5.07;3.17;;;16.50;99.90;;;;;;5031498;28;20034;-64
2022/06/06 10:44:27;;;;;;;5.13;3.42;;;16.20;99.90;;;;;;5031901;28;20073;-64
2022/06/06 10:47:32;;;;;;;6.30;3.28;;;16.00;99.90;;;;;;5001092;28;20053;-67
2022/06/06 10:50:30;;;;;;;5.82;3.35;;;15.80;99.90;;;;;;4972429;28;20553;-64
2022/06/06 10:53:17;;;;;;;6.50;3.47;;;15.70;99.90;;;;;;5025226;28;20080;-65
2022/06/06 10:56:05;;;;;;;4.38;2.80;;;15.60;99.90;;;;;;5026525;28;20046;-63
2022/06/06 10:59:09;;;;;;;6.60;3.33;;;15.50;99.90;;;;;;5023627;28;20037;-64
2022/06/06 11:02:07;;;;;;;4.28;2.70;;;15.40;99.90;;;;;;5023211;28;20059;-63
2022/06/06 11:04:51;;;;;;;5.50;2.50;;;15.30;99.90;;;;;;4926033;28;20080;-64
2022/06/06 11:07:29;;;;;;;4.55;2.60;;;15.20;99.90;;;;;;5008362;28;20129;-64
2022/06/06 11:10:23;;;;;;;4.32;2.05;;;15.10;99.90;;;;;;5015269;28;20452;-65
2022/06/06 11:13:26;;;;;;;3.78;2.30;;;15.00;99.90;;;;;;5010817;28;20049;-64
2022/06/06 11:16:17;;;;;;;2.25;2.00;;;14.90;99.90;;;;;;5000747;28;20048;-65
2022/06/06 11:18:51;;;;;;;2.28;1.80;;;15.00;99.90;;;;;;5007586;28;20125;-63
2022/06/06 11:21:46;;;;;;;3.45;1.90;;;15.00;99.90;;;;;;5000469;28;20052;-63
2022/06/06 11:24:18;;;;;;;3.90;2.00;;;15.30;99.90;;;;;;4998949;28;20076;-63
2022/06/06 11:27:10;;;;;;;4.75;2.50;;;15.70;99.90;;;;;;5007137;28;20073;-64
2022/06/06 11:30:07;;;;;;;3.77;2.80;;;16.10;99.90;;;;;;5017545;28;20041;-63
2022/06/06 11:33:11;;;;;;;4.40;2.67;;;16.50;99.90;;;;;;5007684;28;20041;-63
2022/06/06 11:36:13;;;;;;;3.78;2.63;;;16.60;99.90;;;;;;5015310;28;20548;-66
2022/06/06 11:39:17;;;;;;;3.45;2.47;;;16.50;99.90;;;;;;5023280;28;20038;-64
2022/06/06 11:42:22;;;;;;;2.83;2.22;;;16.40;99.90;;;;;;4997629;28;20128;-64
2022/06/06 11:44:57;;;;;;;2.05;1.73;;;16.40;99.90;;;;;;5026578;28;20044;-67
2022/06/06 11:47:55;;;;;;;4.05;2.00;;;16.70;99.90;;;;;;5013113;28;20033;-66
2022/06/06 11:50:42;;;;;;;3.47;2.00;;;17.10;99.90;;;;;;5021166;28;20083;-64
2022/06/06 11:53:22;;;;;;;4.63;1.33;;;17.50;99.90;;;;;;5023851;28;20045;-63
2022/06/06 11:56:16;;;;;;;2.30;1.38;;;17.90;99.90;;;;;;5026883;28;20116;-64
2022/06/06 11:59:00;;;;;;;2.47;1.40;;;18.20;99.90;;;;;;4999827;28;20033;-65
2022/06/06 12:01:45;;;;;;;3.28;1.50;;;18.50;99.90;;;;;;5017509;28;20049;-64
2022/06/06 12:04:39;;;;;;;2.80;1.33;;;18.50;99.90;;;;;;4992930;28;20443;-64
2022/06/06 12:07:24;;;;;;;1.20;1.10;;;18.40;99.90;;;;;;5015844;28;20388;-63
2022/06/06 12:10:12;;;;;;;1.63;1.10;;;18.40;99.90;;;;;;5016110;28;20129;-65
2022/06/06 12:13:15;;;;;;;1.50;0.90;;;18.50;99.90;;;;;;5011591;28;20038;-66
2022/06/06 12:15:54;;;;;;;2.42;1.17;;;18.60;99.90;;;;;;4991179;28;20060;-65
2022/06/06 12:18:42;;;;;;;1.83;1.00;;;18.60;99.90;;;;;;4990333;28;20068;-66
2022/06/06 12:21:26;;;;;;;1.10;1.00;;;18.60;99.90;;;;;;4995620;28;20516;-65
2022/06/06 12:24:29;;;;;;;2.08;1.10;;;18.50;99.90;;;;;;5003630;28;20034;-65
2022/06/06 12:27:09;;;;;;;2.67;1.20;;;18.50;99.90;;;;;;5018433;23;20416;-65
2022/06/06 12:29:57;;;;;;;2.55;1.48;;;18.50;99.90;;;;;;4970918;28;20109;-64
2022/06/06 12:32:41;;;;;;;1.85;1.30;;;18.50;99.90;;;;;;4959543;28;20082;-66
2022/06/06 12:35:39;;;;;;;4.22;1.50;;;18.40;99.90;;;;;;4967205;28;20058;-67
2022/06/06 12:38:05;;;;;;;4.60;1.80;;;18.40;99.90;;;;;;4966577;28;20031;-67
2022/06/06 12:40:58;;;;;;;3.92;1.73;;;18.40;99.90;;;;;;4966168;28;20472;-67
2022/06/06 12:43:23;;;;;;;5.65;1.80;;;18.40;99.90;;;;;;4949407;28;20050;-67
2022/06/06 12:46:13;;;;;;;2.75;1.73;;;18.40;99.90;;;;;;4948729;28;20424;-67
2022/06/06 12:49:11;;;;;;;3.90;1.55;;;18.40;99.90;;;;;;4947127;28;20421;-67
2022/06/06 12:51:39;;;;;;;2.72;1.58;;;18.30;99.90;;;;;;4965322;28;20061;-67
2022/06/06 12:55:12;;;;;;;2.30;1.50;;;18.30;99.90;;;;;;4973488;28;20035;-67
2022/06/06 12:57:19;;;;;;;;;;;18.30;99.90;;;;;;4948334;28;20054;-67
2022/06/06 13:00:05;;;;;;;2.78;1.10;;;18.10;99.90;;;;;;4972932;28;20289;-66
2022/06/06 13:02:36;;;;;;;2.08;1.13;;;18.00;99.90;;;;;;4946654;28;20042;-67
2022/06/06 13:05:13;;;;;;;1.98;1.20;;;17.90;99.90;;;;;;4966284;28;20043;-67
2022/06/06 13:08:06;;;;;;;2.40;1.30;;;18.00;99.90;;;;;;4949951;28;20085;-66
2022/06/06 13:11:09;;;;;;;3.53;1.20;;;17.90;99.90;;;;;;4952215;28;20051;-67
2022/06/06 13:13:53;;;;;;;2.28;1.30;;;17.90;99.90;;;;;;4967663;28;20521;-67
2022/06/06 13:16:47;;;;;;;2.10;1.48;;;17.90;99.90;;;;;;4967026;28;20463;-66
2022/06/06 13:19:26;;;;;;;2.95;1.55;;;17.80;99.90;;;;;;4944042;28;20469;-67
2022/06/06 13:22:40;;;;;;;1.83;1.58;;;17.70;99.90;;;;;;4948883;28;20468;-67
2022/06/06 13:25:15;;;;;;;2.28;1.58;;;17.70;99.90;;;;;;4886067;28;20049;-67
2022/06/06 13:27:56;;;;;;;3.70;1.80;;;17.60;99.90;;;;;;4955586;28;20053;-67
2022/06/06 13:30:37;;;;;;;2.90;1.80;;;17.50;99.90;;;;;;4973087;28;20038;-67
2022/06/06 13:33:36;;;;;;;2.40;2.20;;;17.30;99.90;;;;;;4969268;28;20034;-67
2022/06/06 13:36:23;;;;;;;5.40;2.40;;;17.10;99.90;;;;;;4939550;28;20039;-67
2022/06/06 13:39:10;;;;;;;7.43;2.60;;;16.80;99.90;;;;;;4972368;28;20457;-67
2022/06/06 13:41:39;;;;;;;4.95;2.40;;;16.70;99.90;;;;;;4951639;28;20314;-67
2022/06/06 13:44:34;;;;;;;4.20;2.33;;;16.50;99.90;;;;;;4956847;28;20101;-67
2022/06/06 13:47:43;;;;;;;3.72;2.60;;;16.40;99.90;;;;;;4952913;28;20549;-66
2022/06/06 13:50:21;;;;;;;9.30;3.05;;;16.20;99.90;;;;;;4939174;28;20057;-66
2022/06/06 13:53:03;;;;;;;3.80;2.80;;;16.00;99.90;;;;;;4954512;28;20039;-66
2022/06/06 13:55:37;;;;;;;5.32;3.20;;;15.90;99.90;;;;;;4956161;28;20078;-66
2022/06/06 13:58:21;;;;;;;7.57;3.67;;;15.90;99.90;;;;;;4955085;28;20134;-66
2022/06/06 14:00:56;;;;;;;7.35;3.65;;;15.80;99.90;;;;;;4968980;28;20047;-66
2022/06/06 14:03:32;;;;;;;7.13;3.97;;;15.80;99.90;;;;;;4969286;28;20045;-66
2022/06/06 14:06:06;;;;;;;4.15;3.50;;;15.80;99.90;;;;;;4972850;28;20042;-66
2022/06/06 14:08:56;;;;;;;5.75;3.75;;;15.80;99.90;;;;;;4950980;28;20042;-65
2022/06/06 14:11:33;;;;;;;5.63;3.80;;;15.80;99.90;;;;;;4951641;28;20054;-67